sensor_id;sensor_type;location;lat;lon;timestamp;pressure;altitude;pressure_sealevel;temperature;humidity
7075;BME280;3578;51.568;6.932;2023-05-19T00:02:27;53707.03;;;-144.14;84.38
7075;BME280;3578;51.568;6.932;2023-05-19T00:04:59;53713.06;;;-144.14;84.24
7075;BME280;3578;51.568;6.932;2023-05-19T00:07:30;53695.00;;;-144.14;84.48
7075;BME280;3578;51.568;6.932;2023-05-19T00:09:58;53662.94;;;-144.14;85.03
7075;BME280;3578;51.568;6.932;2023-05-19T00:12:26;53658.94;;;-144.14;86.21
7075;BME280;3578;51.568;6.932;2023-05-19T00:14:54;53658.94;;;-144.14;86.27
7075;BME280;3578;51.568;6.932;2023-05-19T00:17:21;53610.81;;;-144.14;86.24
7075;BME280;3578;51.568;6.932;2023-05-19T00:19:48;53630.88;;;-144.14;86.46
7075;BME280;3578;51.568;6.932;2023-05-19T00:22:17;53634.88;;;-144.14;86.64
7075;BME280;3578;51.568;6.932;2023-05-19T00:24:45;53582.78;;;-144.14;86.04
7075;BME280;3578;51.568;6.932;2023-05-19T00:27:12;53630.88;;;-144.14;86.35
7075;BME280;3578;51.568;6.932;2023-05-19T00:29:39;53612.84;;;-144.14;87.00
7075;BME280;3578;51.568;6.932;2023-05-19T00:32:06;53592.78;;;-144.14;87.56
7075;BME280;3578;51.568;6.932;2023-05-19T00:34:32;53590.78;;;-144.14;87.36
7075;BME280;3578;51.568;6.932;2023-05-19T00:36:59;53602.81;;;-144.14;87.10
7075;BME280;3578;51.568;6.932;2023-05-19T00:39:26;53552.69;;;-144.14;86.46
7075;BME280;3578;51.568;6.932;2023-05-19T00:41:55;53554.72;;;-144.14;85.93
7075;BME280;3578;51.568;6.932;2023-05-19T00:44:22;53606.81;;;-144.14;85.09
7075;BME280;3578;51.568;6.932;2023-05-19T00:46:49;53566.72;;;-144.14;84.98
7075;BME280;3578;51.568;6.932;2023-05-19T00:49:15;53594.78;;;-144.14;84.83
7075;BME280;3578;51.568;6.932;2023-05-19T00:51:42;53584.78;;;-144.14;83.67
7075;BME280;3578;51.568;6.932;2023-05-19T00:54:10;53550.69;;;-144.14;83.35
7075;BME280;3578;51.568;6.932;2023-05-19T00:56:37;53590.78;;;-144.14;84.44
7075;BME280;3578;51.568;6.932;2023-05-19T00:59:05;53578.75;;;-144.14;85.01
7075;BME280;3578;51.568;6.932;2023-05-19T01:01:33;53574.75;;;-144.14;85.79
7075;BME280;3578;51.568;6.932;2023-05-19T01:04:01;53524.66;;;-144.14;86.67
7075;BME280;3578;51.568;6.932;2023-05-19T01:06:29;53544.69;;;-144.14;87.58
7075;BME280;3578;51.568;6.932;2023-05-19T01:08:56;53534.66;;;-144.14;88.12
7075;BME280;3578;51.568;6.932;2023-05-19T01:11:23;53486.56;;;-144.14;88.82
7075;BME280;3578;51.568;6.932;2023-05-19T01:13:50;53500.59;;;-144.14;89.08
7075;BME280;3578;51.568;6.932;2023-05-19T01:16:24;53450.50;;;-144.14;90.03
7075;BME280;3578;51.568;6.932;2023-05-19T01:19:01;53466.53;;;-144.14;90.52
7075;BME280;3578;51.568;6.932;2023-05-19T01:22:16;53434.44;;;-144.14;90.55
7075;BME280;3578;51.568;6.932;2023-05-19T01:25:31;53450.50;;;-144.14;90.70
7075;BME280;3578;51.568;6.932;2023-05-19T01:28:25;53452.50;;;-144.14;91.79
7075;BME280;3578;51.568;6.932;2023-05-19T01:30:59;53424.44;;;-144.14;92.66
7075;BME280;3578;51.568;6.932;2023-05-19T01:33:29;53414.41;;;-144.14;93.15
7075;BME280;3578;51.568;6.932;2023-05-19T01:35:58;53396.38;;;-144.14;93.09
7075;BME280;3578;51.568;6.932;2023-05-19T01:38:28;53384.34;;;-144.14;93.04
7075;BME280;3578;51.568;6.932;2023-05-19T01:40:56;53408.41;;;-144.14;93.21
7075;BME280;3578;51.568;6.932;2023-05-19T01:43:25;53350.28;;;-144.14;93.00
7075;BME280;3578;51.568;6.932;2023-05-19T01:45:52;53330.25;;;-144.14;93.29
7075;BME280;3578;51.568;6.932;2023-05-19T01:48:21;53336.25;;;-144.14;93.48
7075;BME280;3578;51.568;6.932;2023-05-19T01:50:49;53284.13;;;-144.14;93.82
7075;BME280;3578;51.568;6.932;2023-05-19T01:53:16;53302.19;;;-144.14;94.13
7075;BME280;3578;51.568;6.932;2023-05-19T01:55:46;53302.19;;;-144.14;94.40
7075;BME280;3578;51.568;6.932;2023-05-19T01:58:21;53278.13;;;-144.14;94.08
7075;BME280;3578;51.568;6.932;2023-05-19T02:00:56;53290.16;;;-144.14;94.20
7075;BME280;3578;51.568;6.932;2023-05-19T02:06:31;53246.06;;;-144.14;94.82
7075;BME280;3578;51.568;6.932;2023-05-19T02:09:10;53222.00;;;-144.14;95.30
7075;BME280;3578;51.568;6.932;2023-05-19T02:11:43;53210.00;;;-144.14;95.69
7075;BME280;3578;51.568;6.932;2023-05-19T02:14:19;53205.97;;;-144.14;95.50
7075;BME280;3578;51.568;6.932;2023-05-19T02:16:47;53167.91;;;-144.14;95.54
7075;BME280;3578;51.568;6.932;2023-05-19T02:19:24;53143.84;;;-144.14;95.76
7075;BME280;3578;51.568;6.932;2023-05-19T02:21:51;53131.84;;;-144.14;96.15
7075;BME280;3578;51.568;6.932;2023-05-19T02:24:18;53115.81;;;-144.14;96.42
7075;BME280;3578;51.568;6.932;2023-05-19T02:26:47;53115.81;;;-144.14;96.55
7075;BME280;3578;51.568;6.932;2023-05-19T02:29:15;53069.72;;;-144.14;96.56
7075;BME280;3578;51.568;6.932;2023-05-19T02:31:42;53069.72;;;-144.14;97.02
7075;BME280;3578;51.568;6.932;2023-05-19T02:34:09;52999.56;;;-144.14;97.12
7075;BME280;3578;51.568;6.932;2023-05-19T02:36:39;52999.56;;;-144.14;97.54
7075;BME280;3578;51.568;6.932;2023-05-19T02:39:07;52997.56;;;-144.14;97.57
7075;BME280;3578;51.568;6.932;2023-05-19T02:41:35;52915.41;;;-144.14;97.80
7075;BME280;3578;51.568;6.932;2023-05-19T02:44:03;52893.38;;;-144.14;97.89
7075;BME280;3578;51.568;6.932;2023-05-19T02:46:30;52849.28;;;-144.14;98.28
7075;BME280;3578;51.568;6.932;2023-05-19T02:48:57;52837.25;;;-144.14;98.47
7075;BME280;3578;51.568;6.932;2023-05-19T02:51:25;52805.19;;;-144.14;98.93
7075;BME280;3578;51.568;6.932;2023-05-19T02:53:53;52751.09;;;-144.14;98.78
7075;BME280;3578;51.568;6.932;2023-05-19T02:56:20;52759.09;;;-144.14;98.66
7075;BME280;3578;51.568;6.932;2023-05-19T02:58:47;52717.03;;;-144.14;98.74
7075;BME280;3578;51.568;6.932;2023-05-19T03:01:14;52682.97;;;-144.14;98.77
7075;BME280;3578;51.568;6.932;2023-05-19T03:03:41;52678.94;;;-144.14;98.99
7075;BME280;3578;51.568;6.932;2023-05-19T03:06:08;52634.88;;;-144.14;99.13
7075;BME280;3578;51.568;6.932;2023-05-19T03:08:35;52578.75;;;-144.14;99.25
7075;BME280;3578;51.568;6.932;2023-05-19T03:11:03;52578.75;;;-144.14;99.33
7075;BME280;3578;51.568;6.932;2023-05-19T03:13:30;52528.69;;;-144.14;99.46
7075;BME280;3578;51.568;6.932;2023-05-19T03:15:57;52520.66;;;-144.14;99.67
7075;BME280;3578;51.568;6.932;2023-05-19T03:18:25;52480.59;;;-144.14;99.52
7075;BME280;3578;51.568;6.932;2023-05-19T03:20:52;52488.59;;;-144.14;99.60
7075;BME280;3578;51.568;6.932;2023-05-19T03:23:20;52448.53;;;-144.14;99.69
7075;BME280;3578;51.568;6.932;2023-05-19T03:25:47;52432.50;;;-144.14;99.62
7075;BME280;3578;51.568;6.932;2023-05-19T03:28:15;52384.41;;;-144.14;99.78
7075;BME280;3578;51.568;6.932;2023-05-19T03:30:42;52340.34;;;-144.14;99.98
7075;BME280;3578;51.568;6.932;2023-05-19T03:33:09;52300.25;;;-144.14;100.00
7075;BME280;3578;51.568;6.932;2023-05-19T03:35:36;52304.28;;;-144.14;100.00
7075;BME280;3578;51.568;6.932;2023-05-19T03:38:03;52270.22;;;-144.14;100.00
7075;BME280;3578;51.568;6.932;2023-05-19T03:40:30;52182.06;;;-144.14;100.00
7075;BME280;3578;51.568;6.932;2023-05-19T03:42:57;52170.03;;;-144.14;100.00
7075;BME280;3578;51.568;6.932;2023-05-19T03:45:27;52127.97;;;-144.14;100.00
7075;BME280;3578;51.568;6.932;2023-05-19T03:47:54;52125.97;;;-144.14;100.00
7075;BME280;3578;51.568;6.932;2023-05-19T03:50:21;52083.88;;;-144.14;100.00
7075;BME280;3578;51.568;6.932;2023-05-19T03:52:49;52017.78;;;-144.14;100.00
7075;BME280;3578;51.568;6.932;2023-05-19T03:55:16;52077.88;;;-144.14;100.00
7075;BME280;3578;51.568;6.932;2023-05-19T03:57:44;52037.81;;;-144.14;100.00
7075;BME280;3578;51.568;6.932;2023-05-19T04:00:13;52166.03;;;-144.14;99.60
7075;BME280;3578;51.568;6.932;2023-05-19T04:02:41;52176.03;;;-144.14;99.09
7075;BME280;3578;51.568;6.932;2023-05-19T04:05:09;52192.06;;;-144.14;98.69
7075;BME280;3578;51.568;6.932;2023-05-19T04:07:36;52220.13;;;-144.14;98.68
7075;BME280;3578;51.568;6.932;2023-05-19T04:10:03;52234.16;;;-144.14;98.51
7075;BME280;3578;51.568;6.932;2023-05-19T04:12:31;52254.19;;;-144.14;98.49
7075;BME280;3578;51.568;6.932;2023-05-19T04:14:58;52236.16;;;-144.14;98.63
7075;BME280;3578;51.568;6.932;2023-05-19T04:17:25;52178.06;;;-144.14;98.80
7075;BME280;3578;51.568;6.932;2023-05-19T04:19:54;52178.06;;;-144.14;99.02
7075;BME280;3578;51.568;6.932;2023-05-19T04:22:21;52168.03;;;-144.14;99.19
7075;BME280;3578;51.568;6.932;2023-05-19T04:24:48;52168.03;;;-144.14;99.22
7075;BME280;3578;51.568;6.932;2023-05-19T04:27:16;52129.97;;;-144.14;99.21
7075;BME280;3578;51.568;6.932;2023-05-19T04:29:44;52073.88;;;-144.14;99.52
7075;BME280;3578;51.568;6.932;2023-05-19T04:32:12;52119.94;;;-144.14;99.70
7075;BME280;3578;51.568;6.932;2023-05-19T04:34:42;52015.78;;;-144.14;99.79
7075;BME280;3578;51.568;6.932;2023-05-19T04:37:11;51997.75;;;-144.14;100.00
7075;BME280;3578;51.568;6.932;2023-05-19T04:39:38;51951.66;;;-144.14;100.00
7075;BME280;3578;51.568;6.932;2023-05-19T04:42:07;51991.72;;;-144.14;99.96
7075;BME280;3578;51.568;6.932;2023-05-19T04:44:36;51951.66;;;-144.14;99.94
7075;BME280;3578;51.568;6.932;2023-05-19T04:47:05;51935.63;;;-144.14;99.87
7075;BME280;3578;51.568;6.932;2023-05-19T04:49:33;51989.72;;;-144.14;99.85
7075;BME280;3578;51.568;6.932;2023-05-19T04:52:05;51987.72;;;-144.14;99.71
7075;BME280;3578;51.568;6.932;2023-05-19T04:54:34;51983.72;;;-144.14;99.77
7075;BME280;3578;51.568;6.932;2023-05-19T04:57:01;52007.75;;;-144.14;99.51
7075;BME280;3578;51.568;6.932;2023-05-19T04:59:29;52021.78;;;-144.14;99.21
7075;BME280;3578;51.568;6.932;2023-05-19T05:01:56;52087.91;;;-144.14;98.97
7075;BME280;3578;51.568;6.932;2023-05-19T05:04:23;52103.94;;;-144.14;98.86
7075;BME280;3578;51.568;6.932;2023-05-19T05:06:50;52055.84;;;-144.14;99.18
7075;BME280;3578;51.568;6.932;2023-05-19T05:09:17;51953.66;;;-144.14;99.65
7075;BME280;3578;51.568;6.932;2023-05-19T05:11:47;51975.72;;;-144.14;99.70
7075;BME280;3578;51.568;6.932;2023-05-19T05:14:15;51983.72;;;-144.14;99.53
7075;BME280;3578;51.568;6.932;2023-05-19T05:16:42;52013.78;;;-144.14;99.41
7075;BME280;3578;51.568;6.932;2023-05-19T05:19:10;52075.88;;;-144.14;98.82
7075;BME280;3578;51.568;6.932;2023-05-19T05:21:38;52144.00;;;-144.14;98.45
7075;BME280;3578;51.568;6.932;2023-05-19T05:24:07;52240.16;;;-144.14;97.66
7075;BME280;3578;51.568;6.932;2023-05-19T05:26:35;52316.28;;;-144.14;97.06
7075;BME280;3578;51.568;6.932;2023-05-19T05:29:03;52398.44;;;-144.14;96.55
7075;BME280;3578;51.568;6.932;2023-05-19T05:31:31;52376.41;;;-144.14;96.33
7075;BME280;3578;51.568;6.932;2023-05-19T05:33:58;52460.56;;;-144.14;95.44
7075;BME280;3578;51.568;6.932;2023-05-19T05:36:25;52514.66;;;-144.14;95.31
7075;BME280;3578;51.568;6.932;2023-05-19T05:38:52;52520.66;;;-144.14;94.91
7075;BME280;3578;51.568;6.932;2023-05-19T05:41:19;52576.75;;;-144.14;94.95
7075;BME280;3578;51.568;6.932;2023-05-19T05:43:46;52632.88;;;-144.14;94.15
7075;BME280;3578;51.568;6.932;2023-05-19T05:46:16;52624.84;;;-144.14;94.32
7075;BME280;3578;51.568;6.932;2023-05-19T05:48:43;52646.91;;;-144.14;94.22
7075;BME280;3578;51.568;6.932;2023-05-19T05:51:11;52692.97;;;-144.14;94.61
7075;BME280;3578;51.568;6.932;2023-05-19T05:53:40;52688.97;;;-144.14;94.69
7075;BME280;3578;51.568;6.932;2023-05-19T05:56:11;52648.91;;;-144.14;94.95
7075;BME280;3578;51.568;6.932;2023-05-19T05:58:38;52688.97;;;-144.14;94.67
7075;BME280;3578;51.568;6.932;2023-05-19T06:01:06;52729.03;;;-144.14;94.57
7075;BME280;3578;51.568;6.932;2023-05-19T06:03:39;52855.28;;;-144.14;91.96
7075;BME280;3578;51.568;6.932;2023-05-19T06:06:06;52965.50;;;-144.14;89.21
7075;BME280;3578;51.568;6.932;2023-05-19T06:08:33;53019.59;;;-144.14;89.21
7075;BME280;3578;51.568;6.932;2023-05-19T06:11:00;53011.59;;;-144.14;89.08
7075;BME280;3578;51.568;6.932;2023-05-19T06:13:33;53013.59;;;-144.14;90.05
7075;BME280;3578;51.568;6.932;2023-05-19T06:16:00;52957.50;;;-144.14;90.44
7075;BME280;3578;51.568;6.932;2023-05-19T06:18:27;53113.78;;;-144.14;89.45
7075;BME280;3578;51.568;6.932;2023-05-19T06:20:56;53189.94;;;-144.14;85.89
7075;BME280;3578;51.568;6.932;2023-05-19T06:23:23;53159.88;;;-144.14;87.25
7075;BME280;3578;51.568;6.932;2023-05-19T06:25:51;53248.06;;;-144.14;84.06
7075;BME280;3578;51.568;6.932;2023-05-19T06:28:18;53264.09;;;-144.14;85.37
7075;BME280;3578;51.568;6.932;2023-05-19T06:30:45;53298.16;;;-144.14;82.92
7075;BME280;3578;51.568;6.932;2023-05-19T06:33:12;53406.41;;;-144.14;77.63
7075;BME280;3578;51.568;6.932;2023-05-19T06:35:39;53396.38;;;-144.14;78.59
7075;BME280;3578;51.568;6.932;2023-05-19T06:38:07;53474.53;;;-144.14;79.38
7075;BME280;3578;51.568;6.932;2023-05-19T06:40:35;53490.56;;;-144.14;77.72
7075;BME280;3578;51.568;6.932;2023-05-19T06:43:02;53522.63;;;-144.14;79.86
7075;BME280;3578;51.568;6.932;2023-05-19T06:45:29;53741.09;;;-144.14;77.15
7075;BME280;3578;51.568;6.932;2023-05-19T06:47:56;53985.66;;;-144.14;63.45
7075;BME280;3578;51.568;6.932;2023-05-19T06:50:24;54087.88;;;-144.14;59.62
7075;BME280;3578;51.568;6.932;2023-05-19T06:52:51;54158.03;;;-144.14;57.70
7075;BME280;3578;51.568;6.932;2023-05-19T06:55:19;54194.13;;;-144.14;50.73
7075;BME280;3578;51.568;6.932;2023-05-19T06:57:46;54298.38;;;-144.14;55.92
7075;BME280;3578;51.568;6.932;2023-05-19T07:00:14;54434.69;;;-144.14;50.88
7075;BME280;3578;51.568;6.932;2023-05-19T07:02:43;54557.00;;;-144.14;54.83
7075;BME280;3578;51.568;6.932;2023-05-19T07:05:10;54661.25;;;-144.14;55.49
7075;BME280;3578;51.568;6.932;2023-05-19T07:07:37;54809.63;;;-144.14;58.32
7075;BME280;3578;51.568;6.932;2023-05-19T07:10:05;55004.09;;;-144.14;49.61
7075;BME280;3578;51.568;6.932;2023-05-19T07:12:34;54974.03;;;-144.14;44.90
7075;BME280;3578;51.568;6.932;2023-05-19T07:15:01;55090.31;;;-144.14;46.28
7075;BME280;3578;51.568;6.932;2023-05-19T07:17:28;55246.75;;;-144.14;42.97
7075;BME280;3578;51.568;6.932;2023-05-19T07:19:55;55347.00;;;-144.14;40.19
7075;BME280;3578;51.568;6.932;2023-05-19T07:22:22;55455.28;;;-144.14;38.93
7075;BME280;3578;51.568;6.932;2023-05-19T07:24:49;55244.72;;;-144.14;40.46
7075;BME280;3578;51.568;6.932;2023-05-19T07:27:16;55138.44;;;-144.14;41.88
7075;BME280;3578;51.568;6.932;2023-05-19T07:29:45;55056.25;;;-144.14;42.82
7075;BME280;3578;51.568;6.932;2023-05-19T07:32:12;54994.09;;;-144.14;43.56
7075;BME280;3578;51.568;6.932;2023-05-19T07:34:39;54976.03;;;-144.14;43.66
7075;BME280;3578;51.568;6.932;2023-05-19T07:37:06;54909.88;;;-144.14;48.44
7075;BME280;3578;51.568;6.932;2023-05-19T07:39:34;54925.91;;;-144.14;46.03
7075;BME280;3578;51.568;6.932;2023-05-19T07:42:01;54905.84;;;-144.14;46.36
7075;BME280;3578;51.568;6.932;2023-05-19T07:44:28;54869.78;;;-144.14;43.82
7075;BME280;3578;51.568;6.932;2023-05-19T07:46:57;54867.75;;;-144.14;42.96
7075;BME280;3578;51.568;6.932;2023-05-19T07:49:24;54889.81;;;-144.14;45.68
7075;BME280;3578;51.568;6.932;2023-05-19T07:51:52;54871.78;;;-144.14;47.33
7075;BME280;3578;51.568;6.932;2023-05-19T07:54:19;54941.94;;;-144.14;44.86
7075;BME280;3578;51.568;6.932;2023-05-19T07:56:46;54955.97;;;-144.14;45.08
7075;BME280;3578;51.568;6.932;2023-05-19T07:59:13;54974.03;;;-144.14;43.29
7075;BME280;3578;51.568;6.932;2023-05-19T08:01:40;55012.13;;;-144.14;43.83
7075;BME280;3578;51.568;6.932;2023-05-19T08:04:09;55064.25;;;-144.14;41.08
7075;BME280;3578;51.568;6.932;2023-05-19T08:06:37;55102.34;;;-144.14;40.61
7075;BME280;3578;51.568;6.932;2023-05-19T08:09:04;55086.31;;;-144.14;41.66
7075;BME280;3578;51.568;6.932;2023-05-19T08:11:31;55054.25;;;-144.14;40.36
7075;BME280;3578;51.568;6.932;2023-05-19T08:13:58;55006.13;;;-144.14;41.18
7075;BME280;3578;51.568;6.932;2023-05-19T08:16:25;55014.13;;;-144.14;41.41
7075;BME280;3578;51.568;6.932;2023-05-19T08:18:52;55014.13;;;-144.14;44.28
7075;BME280;3578;51.568;6.932;2023-05-19T08:21:21;55054.25;;;-144.14;42.63
7075;BME280;3578;51.568;6.932;2023-05-19T08:23:47;55070.28;;;-144.14;44.09
7075;BME280;3578;51.568;6.932;2023-05-19T08:26:14;55070.28;;;-144.14;43.44
7075;BME280;3578;51.568;6.932;2023-05-19T08:28:42;55052.22;;;-144.14;41.42
7075;BME280;3578;51.568;6.932;2023-05-19T08:31:09;55100.34;;;-144.14;41.24
7075;BME280;3578;51.568;6.932;2023-05-19T08:33:36;55086.31;;;-144.14;40.80
7075;BME280;3578;51.568;6.932;2023-05-19T08:36:03;55082.31;;;-144.14;39.35
7075;BME280;3578;51.568;6.932;2023-05-19T08:38:32;55064.25;;;-144.14;39.24
7075;BME280;3578;51.568;6.932;2023-05-19T08:41:00;55042.22;;;-144.14;39.38
7075;BME280;3578;51.568;6.932;2023-05-19T08:43:27;55054.25;;;-144.14;39.34
7075;BME280;3578;51.568;6.932;2023-05-19T08:45:54;55038.19;;;-144.14;39.79
7075;BME280;3578;51.568;6.932;2023-05-19T08:48:21;55106.38;;;-144.14;40.54
7075;BME280;3578;51.568;6.932;2023-05-19T08:50:56;55088.31;;;-144.14;42.44
7075;BME280;3578;51.568;6.932;2023-05-19T08:53:29;55096.34;;;-144.14;39.32
7075;BME280;3578;51.568;6.932;2023-05-19T08:56:07;55134.44;;;-144.14;39.51
7075;BME280;3578;51.568;6.932;2023-05-19T08:58:38;55102.34;;;-144.14;39.59
7075;BME280;3578;51.568;6.932;2023-05-19T09:01:06;55110.38;;;-144.14;41.90
7075;BME280;3578;51.568;6.932;2023-05-19T09:03:34;55198.59;;;-144.14;40.47
7075;BME280;3578;51.568;6.932;2023-05-19T09:06:05;55168.53;;;-144.14;39.87
7075;BME280;3578;51.568;6.932;2023-05-19T09:08:33;55210.63;;;-144.14;40.78
7075;BME280;3578;51.568;6.932;2023-05-19T09:11:02;55204.63;;;-144.14;40.61
7075;BME280;3578;51.568;6.932;2023-05-19T09:13:29;55232.69;;;-144.14;39.94
7075;BME280;3578;51.568;6.932;2023-05-19T09:15:56;55246.75;;;-144.14;38.43
7075;BME280;3578;51.568;6.932;2023-05-19T09:18:24;55258.78;;;-144.14;39.16
7075;BME280;3578;51.568;6.932;2023-05-19T09:20:56;55208.63;;;-144.14;38.97
7075;BME280;3578;51.568;6.932;2023-05-19T09:23:27;55272.81;;;-144.14;40.05
7075;BME280;3578;51.568;6.932;2023-05-19T09:25:55;55310.91;;;-144.14;37.65
7075;BME280;3578;51.568;6.932;2023-05-19T09:28:25;55288.84;;;-144.14;36.12
7075;BME280;3578;51.568;6.932;2023-05-19T09:31:02;55280.81;;;-144.14;39.01
7075;BME280;3578;51.568;6.932;2023-05-19T09:33:32;55310.91;;;-144.14;37.97
7075;BME280;3578;51.568;6.932;2023-05-19T09:36:00;55363.03;;;-144.14;37.64
7075;BME280;3578;51.568;6.932;2023-05-19T09:38:28;55357.03;;;-144.14;37.40
7075;BME280;3578;51.568;6.932;2023-05-19T09:40:56;55369.06;;;-144.14;38.35
7075;BME280;3578;51.568;6.932;2023-05-19T09:43:26;55397.13;;;-144.14;38.52
7075;BME280;3578;51.568;6.932;2023-05-19T09:45:58;55381.09;;;-144.14;38.49
7075;BME280;3578;51.568;6.932;2023-05-19T09:48:25;55363.03;;;-144.14;38.27
7075;BME280;3578;51.568;6.932;2023-05-19T09:50:53;55391.13;;;-144.14;39.04
7075;BME280;3578;51.568;6.932;2023-05-19T09:53:22;55395.13;;;-144.14;37.90
7075;BME280;3578;51.568;6.932;2023-05-19T09:55:50;55334.97;;;-144.14;37.08
7075;BME280;3578;51.568;6.932;2023-05-19T09:58:21;55282.84;;;-144.14;39.13
7075;BME280;3578;51.568;6.932;2023-05-19T10:00:50;55298.88;;;-144.14;38.46
7075;BME280;3578;51.568;6.932;2023-05-19T10:03:20;55322.94;;;-144.14;37.88
7075;BME280;3578;51.568;6.932;2023-05-19T10:05:48;55312.91;;;-144.14;38.23
7075;BME280;3578;51.568;6.932;2023-05-19T10:08:16;55330.97;;;-144.14;40.05
7075;BME280;3578;51.568;6.932;2023-05-19T10:10:45;55355.03;;;-144.14;37.80
7075;BME280;3578;51.568;6.932;2023-05-19T10:13:12;55318.94;;;-144.14;38.46
7075;BME280;3578;51.568;6.932;2023-05-19T10:15:40;55300.88;;;-144.14;37.76
7075;BME280;3578;51.568;6.932;2023-05-19T10:18:10;55336.97;;;-144.14;39.13
7075;BME280;3578;51.568;6.932;2023-05-19T10:20:38;55369.06;;;-144.14;38.41
7075;BME280;3578;51.568;6.932;2023-05-19T10:23:06;55387.09;;;-144.14;38.49
7075;BME280;3578;51.568;6.932;2023-05-19T10:25:34;55367.06;;;-144.14;38.36
7075;BME280;3578;51.568;6.932;2023-05-19T10:28:08;55415.19;;;-144.14;38.91
7075;BME280;3578;51.568;6.932;2023-05-19T10:30:40;55391.13;;;-144.14;36.05
7075;BME280;3578;51.568;6.932;2023-05-19T10:33:13;55405.16;;;-144.14;37.35
7075;BME280;3578;51.568;6.932;2023-05-19T10:36:13;55429.22;;;-144.14;37.52
7075;BME280;3578;51.568;6.932;2023-05-19T10:38:48;55457.28;;;-144.14;36.67
7075;BME280;3578;51.568;6.932;2023-05-19T10:41:26;55467.31;;;-144.14;37.57
7075;BME280;3578;51.568;6.932;2023-05-19T10:44:02;55385.09;;;-144.14;37.25
7075;BME280;3578;51.568;6.932;2023-05-19T10:46:31;55369.06;;;-144.14;36.60
7075;BME280;3578;51.568;6.932;2023-05-19T10:48:59;55326.94;;;-144.14;37.52
7075;BME280;3578;51.568;6.932;2023-05-19T10:51:30;55314.91;;;-144.14;37.37
7075;BME280;3578;51.568;6.932;2023-05-19T10:53:59;55328.94;;;-144.14;37.23
7075;BME280;3578;51.568;6.932;2023-05-19T10:56:29;55361.03;;;-144.14;37.79
7075;BME280;3578;51.568;6.932;2023-05-19T10:59:00;55324.94;;;-144.14;37.54
7075;BME280;3578;51.568;6.932;2023-05-19T11:01:30;55310.91;;;-144.14;36.20
7075;BME280;3578;51.568;6.932;2023-05-19T11:04:05;55310.91;;;-144.14;37.32
7075;BME280;3578;51.568;6.932;2023-05-19T11:06:33;55371.06;;;-144.14;37.00
7075;BME280;3578;51.568;6.932;2023-05-19T11:09:11;55338.97;;;-144.14;37.04
7075;BME280;3578;51.568;6.932;2023-05-19T11:11:47;55298.88;;;-144.14;37.80
7075;BME280;3578;51.568;6.932;2023-05-19T11:14:17;55326.94;;;-144.14;36.44
7075;BME280;3578;51.568;6.932;2023-05-19T11:16:47;55326.94;;;-144.14;36.46
7075;BME280;3578;51.568;6.932;2023-05-19T11:19:27;55365.06;;;-144.14;36.50
7075;BME280;3578;51.568;6.932;2023-05-19T11:21:57;55391.13;;;-144.14;36.08
7075;BME280;3578;51.568;6.932;2023-05-19T11:24:37;55407.16;;;-144.14;37.77
7075;BME280;3578;51.568;6.932;2023-05-19T11:27:24;55415.19;;;-144.14;36.29
7075;BME280;3578;51.568;6.932;2023-05-19T11:29:52;55501.41;;;-144.14;37.35
7075;BME280;3578;51.568;6.932;2023-05-19T11:32:19;55501.41;;;-144.14;36.94
7075;BME280;3578;51.568;6.932;2023-05-19T11:34:48;55487.38;;;-144.14;36.95
7075;BME280;3578;51.568;6.932;2023-05-19T11:37:15;55509.44;;;-144.14;37.40
7075;BME280;3578;51.568;6.932;2023-05-19T11:39:45;55529.50;;;-144.14;36.52
7075;BME280;3578;51.568;6.932;2023-05-19T11:42:12;55487.38;;;-144.14;36.48
7075;BME280;3578;51.568;6.932;2023-05-19T11:44:39;55467.31;;;-144.14;36.23
7075;BME280;3578;51.568;6.932;2023-05-19T11:47:07;55497.41;;;-144.14;35.26
7075;BME280;3578;51.568;6.932;2023-05-19T11:49:35;55515.44;;;-144.14;35.85
7075;BME280;3578;51.568;6.932;2023-05-19T11:52:04;55519.47;;;-144.14;35.73
7075;BME280;3578;51.568;6.932;2023-05-19T11:54:33;55495.41;;;-144.14;35.31
7075;BME280;3578;51.568;6.932;2023-05-19T11:57:02;55537.50;;;-144.14;35.93
7075;BME280;3578;51.568;6.932;2023-05-19T11:59:30;55573.63;;;-144.14;35.63
7075;BME280;3578;51.568;6.932;2023-05-19T12:02:00;55629.75;;;-144.14;37.02
7075;BME280;3578;51.568;6.932;2023-05-19T12:04:29;55639.78;;;-144.14;35.81
7075;BME280;3578;51.568;6.932;2023-05-19T12:06:56;55621.75;;;-144.14;35.13
7075;BME280;3578;51.568;6.932;2023-05-19T12:09:27;55617.72;;;-144.14;34.51
7075;BME280;3578;51.568;6.932;2023-05-19T12:11:55;55623.75;;;-144.14;37.38
7075;BME280;3578;51.568;6.932;2023-05-19T12:14:25;55627.75;;;-144.14;36.65
7075;BME280;3578;51.568;6.932;2023-05-19T12:16:52;55623.75;;;-144.14;34.08
7075;BME280;3578;51.568;6.932;2023-05-19T12:19:22;55595.69;;;-144.14;35.02
7075;BME280;3578;51.568;6.932;2023-05-19T12:21:50;55629.75;;;-144.14;35.04
7075;BME280;3578;51.568;6.932;2023-05-19T12:24:18;55643.81;;;-144.14;35.62
7075;BME280;3578;51.568;6.932;2023-05-19T12:26:47;55615.72;;;-144.14;35.19
7075;BME280;3578;51.568;6.932;2023-05-19T12:29:14;55623.75;;;-144.14;34.36
7075;BME280;3578;51.568;6.932;2023-05-19T12:31:45;55655.84;;;-144.14;35.79
7075;BME280;3578;51.568;6.932;2023-05-19T12:34:13;55705.97;;;-144.14;35.48
7075;BME280;3578;51.568;6.932;2023-05-19T12:36:40;55732.06;;;-144.14;35.36
7075;BME280;3578;51.568;6.932;2023-05-19T12:39:07;55756.13;;;-144.14;34.56
7075;BME280;3578;51.568;6.932;2023-05-19T12:41:36;55888.50;;;-144.14;35.56
7075;BME280;3578;51.568;6.932;2023-05-19T12:44:14;55914.56;;;-144.14;34.24
7075;BME280;3578;51.568;6.932;2023-05-19T12:46:42;55974.72;;;-144.14;34.78
7075;BME280;3578;51.568;6.932;2023-05-19T12:49:09;55974.72;;;-144.14;34.99
7075;BME280;3578;51.568;6.932;2023-05-19T12:51:37;55944.66;;;-144.14;34.22
7075;BME280;3578;51.568;6.932;2023-05-19T12:54:05;55884.47;;;-144.14;34.00
7075;BME280;3578;51.568;6.932;2023-05-19T12:56:32;55804.25;;;-144.14;34.05
7075;BME280;3578;51.568;6.932;2023-05-19T12:58:59;55870.44;;;-144.14;34.07
7075;BME280;3578;51.568;6.932;2023-05-19T13:01:28;55824.31;;;-144.14;33.80
7075;BME280;3578;51.568;6.932;2023-05-19T13:03:56;55904.53;;;-144.14;33.80
7075;BME280;3578;51.568;6.932;2023-05-19T13:06:23;55852.38;;;-144.14;34.63
7075;BME280;3578;51.568;6.932;2023-05-19T13:08:50;55868.44;;;-144.14;34.23
7075;BME280;3578;51.568;6.932;2023-05-19T13:11:17;55814.28;;;-144.14;33.81
7075;BME280;3578;51.568;6.932;2023-05-19T13:13:43;55814.28;;;-144.14;34.69